createdAt,value
2023-12-27T00:01:02.466Z,61.83
2023-12-27T00:03:36.303Z,61.38
2023-12-27T00:06:07.672Z,60.70
2023-12-27T00:08:40.339Z,60.86
2023-12-27T00:11:10.822Z,60.64
2023-12-27T00:13:41.407Z,60.22
2023-12-27T00:16:12.063Z,60.20
2023-12-27T00:18:44.665Z,59.86
2023-12-27T00:21:15.389Z,59.90
2023-12-27T00:23:45.996Z,59.99
2023-12-27T00:26:17.013Z,62.68
2023-12-27T00:28:50.650Z,66.15
2023-12-27T00:31:21.261Z,63.91
2023-12-27T00:33:53.792Z,62.68
2023-12-27T00:36:31.665Z,61.52
2023-12-27T00:39:04.109Z,61.76
2023-12-27T00:41:34.780Z,62.98
2023-12-27T00:44:05.534Z,65.22
2023-12-27T00:46:36.085Z,62.75
2023-12-27T00:49:22.166Z,62.77
2023-12-27T00:51:55.397Z,61.98
2023-12-27T00:54:28.423Z,61.11
2023-12-27T00:57:01.671Z,61.04
2023-12-27T00:59:35.126Z,61.07
2023-12-27T01:02:06.154Z,60.18
2023-12-27T01:04:47.702Z,60.88
2023-12-27T01:07:18.946Z,61.22
2023-12-27T01:09:52.379Z,61.39
2023-12-27T01:12:23.558Z,61.12
2023-12-27T01:15:00.305Z,60.48
2023-12-27T01:17:30.834Z,60.24
2023-12-27T01:20:08.169Z,59.17
2023-12-27T01:22:38.627Z,59.68
2023-12-27T01:25:11.650Z,59.54
2023-12-27T01:27:42.213Z,58.68
2023-12-27T01:30:13.524Z,57.70
2023-12-27T01:32:44.160Z,57.97
2023-12-27T01:35:17.025Z,57.10
2023-12-27T01:37:46.848Z,55.90
2023-12-27T01:40:20.780Z,55.10
2023-12-27T01:42:51.240Z,54.92
2023-12-27T01:45:21.706Z,55.05
2023-12-27T01:47:52.402Z,53.62
2023-12-27T01:50:26.765Z,53.86
2023-12-27T01:52:57.734Z,53.13
2023-12-27T01:55:28.390Z,53.04
2023-12-27T01:57:59.246Z,52.57
2023-12-27T02:00:30.020Z,52.25
2023-12-27T02:03:00.801Z,51.80
2023-12-27T02:05:34.305Z,51.98
2023-12-27T02:08:06.095Z,52.30
2023-12-27T02:10:41.074Z,52.42
2023-12-27T02:13:11.734Z,51.40
2023-12-27T02:15:42.277Z,51.70
2023-12-27T02:18:14.443Z,51.07
2023-12-27T02:20:47.693Z,49.55
2023-12-27T02:23:20.711Z,49.66
2023-12-27T02:25:53.451Z,49.34
2023-12-27T02:28:23.053Z,49.58
2023-12-27T02:30:57.397Z,49.04
2023-12-27T02:33:28.144Z,49.01
2023-12-27T02:35:58.757Z,47.80
2023-12-27T02:38:29.334Z,48.32
2023-12-27T02:41:02.651Z,48.38
2023-12-27T02:43:33.271Z,48.79
2023-12-27T02:46:05.291Z,48.62
2023-12-27T02:48:35.944Z,48.59
2023-12-27T02:51:06.804Z,48.16
2023-12-27T02:53:37.386Z,47.64
2023-12-27T02:56:11.057Z,47.45
2023-12-27T02:58:42.657Z,47.23
2023-12-27T03:01:13.115Z,44.75
2023-12-27T03:03:43.577Z,46.67
2023-12-27T03:06:17.096Z,45.08
2023-12-27T03:08:54.723Z,45.52
2023-12-27T03:11:27.030Z,46.41
2023-12-27T03:13:57.698Z,45.66
2023-12-27T03:16:30.006Z,45.16
2023-12-27T03:19:02.400Z,45.01
2023-12-27T03:21:33.078Z,46.92
2023-12-27T03:24:03.794Z,45.35
2023-12-27T03:26:36.074Z,45.11
2023-12-27T03:29:06.682Z,45.38
2023-12-27T03:31:37.358Z,45.25
2023-12-27T03:34:08.361Z,44.47
2023-12-27T03:36:39.053Z,44.83
2023-12-27T03:39:10.643Z,42.46
2023-12-27T03:41:43.248Z,44.35
2023-12-27T03:44:13.984Z,44.17
2023-12-27T03:46:44.721Z,43.76
2023-12-27T03:49:15.477Z,43.08
2023-12-27T03:51:50.344Z,43.38
2023-12-27T03:54:21.087Z,44.17
2023-12-27T03:56:53.432Z,43.85
2023-12-27T03:59:24.072Z,44.25
2023-12-27T04:01:54.620Z,44.40
2023-12-27T04:04:25.271Z,41.96
2023-12-27T04:06:58.362Z,42.78
2023-12-27T04:09:34.045Z,42.55
2023-12-27T04:12:06.773Z,42.55
2023-12-27T04:14:38.856Z,42.63
2023-12-27T04:17:09.358Z,42.16
2023-12-27T04:19:39.860Z,41.32
2023-12-27T04:22:10.872Z,44.33
2023-12-27T04:24:41.577Z,44.13
2023-12-27T04:27:18.717Z,44.32
2023-12-27T04:29:49.500Z,42.49
2023-12-27T04:32:20.052Z,42.46
2023-12-27T04:34:50.619Z,43.26
2023-12-27T04:37:22.999Z,42.72
2023-12-27T04:39:53.533Z,42.39
2023-12-27T04:44:56.477Z,42.68
2023-12-27T04:47:29.714Z,43.05
2023-12-27T04:50:00.758Z,42.79
2023-12-27T04:52:31.446Z,43.40
2023-12-27T04:55:08.712Z,41.88
2023-12-27T04:57:41.357Z,41.05
2023-12-27T05:00:12.651Z,40.94
2023-12-27T05:02:43.246Z,42.60
2023-12-27T05:05:13.881Z,42.63
2023-12-27T05:07:46.457Z,43.35
2023-12-27T05:10:20.944Z,42.71
2023-12-27T05:12:55.473Z,42.21
2023-12-27T05:15:26.164Z,42.07
2023-12-27T05:17:57.218Z,40.47
2023-12-27T05:20:27.872Z,40.59
2023-12-27T05:22:58.374Z,40.36
2023-12-27T05:25:29.027Z,39.93
2023-12-27T05:28:01.348Z,40.86
2023-12-27T05:30:34.308Z,41.38
2023-12-27T05:33:05.173Z,41.84
2023-12-27T05:35:35.936Z,41.74
2023-12-27T05:38:06.848Z,41.38
2023-12-27T05:40:37.546Z,40.82
2023-12-27T05:43:09.867Z,41.07
2023-12-27T05:45:40.560Z,40.57
2023-12-27T05:48:11.795Z,41.20
2023-12-27T05:50:42.511Z,39.97
2023-12-27T05:53:15.040Z,39.51
2023-12-27T05:55:46.009Z,39.17
2023-12-27T05:58:18.156Z,38.45
2023-12-27T06:00:48.765Z,39.13
2023-12-27T06:03:19.533Z,38.82
2023-12-27T06:05:50.290Z,39.30
2023-12-27T06:08:23.808Z,38.09
2023-12-27T06:10:56.072Z,38.37
2023-12-27T06:13:28.278Z,37.17
2023-12-27T06:16:00.034Z,38.23
2023-12-27T06:18:30.634Z,38.85
2023-12-27T06:21:01.302Z,38.81
2023-12-27T06:23:32.554Z,35.80
2023-12-27T06:26:03.113Z,37.80
2023-12-27T06:28:35.425Z,37.77
2023-12-27T06:31:06.682Z,37.52
2023-12-27T06:33:37.458Z,37.45
2023-12-27T06:36:09.660Z,37.56
2023-12-27T06:38:40.687Z,38.49
2023-12-27T06:41:12.480Z,38.63
2023-12-27T06:43:45.891Z,37.44
2023-12-27T06:46:16.435Z,37.88
2023-12-27T06:48:47.083Z,39.29
2023-12-27T06:51:20.330Z,38.00
2023-12-27T06:53:51.159Z,36.92
2023-12-27T06:56:21.661Z,37.35
2023-12-27T06:58:53.986Z,38.01
2023-12-27T07:01:24.794Z,36.33
2023-12-27T07:03:55.556Z,37.25
2023-12-27T07:06:26.315Z,37.14
2023-12-27T07:08:57.679Z,37.22
2023-12-27T07:11:29.126Z,36.90
2023-12-27T07:14:01.354Z,35.75
2023-12-27T07:16:31.900Z,35.80
2023-12-27T07:19:02.559Z,37.35
2023-12-27T07:21:33.348Z,38.11
2023-12-27T07:24:04.093Z,37.66
2023-12-27T07:26:35.456Z,37.03
2023-12-27T07:29:07.945Z,37.07
2023-12-27T07:31:37.613Z,37.16
2023-12-27T07:34:08.166Z,38.09
2023-12-27T07:36:38.879Z,37.83
2023-12-27T07:39:11.930Z,38.01
2023-12-27T07:41:42.608Z,36.96
2023-12-27T07:44:15.079Z,36.63
2023-12-27T07:46:45.744Z,36.02
2023-12-27T07:49:16.380Z,35.53
2023-12-27T07:51:47.511Z,35.56
2023-12-27T07:54:18.109Z,36.08
2023-12-27T07:56:48.742Z,37.32
2023-12-27T07:59:21.052Z,37.15
2023-12-27T08:01:51.711Z,35.92
2023-12-27T08:04:22.552Z,37.25
2023-12-27T08:06:54.644Z,37.78
2023-12-27T08:09:25.539Z,37.12
2023-12-27T08:11:56.914Z,37.46
2023-12-27T08:14:29.146Z,38.20
2023-12-27T08:16:59.845Z,38.29
2023-12-27T08:19:30.505Z,37.16
2023-12-27T08:22:01.128Z,38.95
2023-12-27T08:24:31.876Z,37.39
2023-12-27T08:27:02.567Z,39.22
2023-12-27T08:29:35.195Z,39.25
2023-12-27T08:32:08.727Z,40.23
2023-12-27T08:34:39.326Z,39.43
2023-12-27T08:37:09.860Z,39.97
2023-12-27T08:39:40.933Z,39.76
2023-12-27T08:42:14.792Z,40.82
2023-12-27T08:44:47.136Z,40.55
2023-12-27T08:47:17.839Z,39.77
2023-12-27T08:49:48.431Z,40.70
2023-12-27T08:52:19.044Z,40.70
2023-12-27T08:54:49.654Z,40.92
2023-12-27T08:57:20.261Z,41.60
2023-12-27T08:59:52.520Z,40.79
2023-12-27T09:02:23.753Z,41.05
2023-12-27T09:04:54.363Z,40.92
2023-12-27T09:07:24.941Z,41.00
2023-12-27T09:09:59.450Z,41.35
2023-12-27T09:12:30.362Z,40.85
2023-12-27T09:15:02.528Z,40.27
2023-12-27T09:17:33.002Z,40.59
2023-12-27T09:20:03.477Z,40.65
2023-12-27T09:22:37.609Z,40.76
2023-12-27T09:25:08.473Z,40.24
2023-12-27T09:27:38.946Z,40.33
2023-12-27T09:30:11.952Z,40.70
2023-12-27T09:32:42.919Z,41.06
2023-12-27T09:35:13.400Z,42.00
2023-12-27T09:37:43.856Z,41.68
2023-12-27T09:40:14.918Z,42.37
2023-12-27T09:42:45.777Z,41.83
2023-12-27T09:45:23.653Z,41.32
2023-12-27T09:47:57.052Z,42.39
2023-12-27T09:50:27.986Z,42.01
2023-12-27T09:52:59.459Z,42.10
2023-12-27T09:55:29.985Z,42.40
2023-12-27T09:58:01.330Z,42.11
2023-12-27T10:00:35.999Z,43.52
2023-12-27T10:03:09.143Z,43.99
2023-12-27T10:05:46.674Z,44.04
2023-12-27T10:08:17.657Z,43.68
2023-12-27T10:10:48.798Z,43.50
2023-12-27T10:13:19.746Z,43.86
2023-12-27T10:15:54.932Z,43.73
2023-12-27T10:18:25.535Z,44.22
2023-12-27T10:20:57.534Z,44.06
2023-12-27T10:23:30.463Z,43.51
2023-12-27T10:26:01.112Z,43.85
2023-12-27T10:28:31.609Z,44.32
2023-12-27T10:31:04.693Z,45.09
2023-12-27T10:33:44.887Z,45.42
2023-12-27T10:36:18.175Z,45.55
2023-12-27T10:38:49.161Z,45.32
2023-12-27T10:41:20.073Z,45.59
2023-12-27T10:43:53.033Z,45.67
2023-12-27T10:46:25.321Z,45.49
2023-12-27T10:48:59.166Z,45.99
2023-12-27T10:51:31.107Z,45.39
2023-12-27T10:54:02.946Z,45.43
2023-12-27T10:56:43.549Z,45.86
2023-12-27T10:59:14.111Z,45.59
2023-12-27T11:01:47.675Z,46.38
2023-12-27T11:04:19.869Z,46.99
2023-12-27T11:06:52.072Z,47.23
2023-12-27T11:09:22.874Z,46.50
2023-12-27T11:11:57.548Z,46.65
2023-12-27T11:14:35.200Z,47.26
2023-12-27T11:17:09.654Z,47.10
2023-12-27T11:19:40.505Z,46.67
2023-12-27T11:22:11.058Z,47.44
2023-12-27T11:24:42.462Z,47.10
2023-12-27T11:27:12.937Z,46.99
2023-12-27T11:29:43.571Z,47.46
2023-12-27T11:32:15.911Z,48.26
2023-12-27T11:34:46.634Z,47.07
2023-12-27T11:37:18.297Z,47.02
2023-12-27T11:39:53.423Z,47.54
2023-12-27T11:42:25.689Z,47.70
2023-12-27T11:44:58.644Z,47.40
2023-12-27T11:47:31.293Z,47.29
2023-12-27T11:50:22.581Z,47.66
2023-12-27T11:52:59.815Z,48.51
2023-12-27T11:55:37.593Z,48.08
2023-12-27T11:58:08.121Z,47.92
2023-12-27T12:00:39.069Z,48.07
2023-12-27T12:03:19.037Z,48.21
2023-12-27T12:06:05.571Z,48.23
2023-12-27T12:08:41.539Z,47.96
2023-12-27T12:11:15.694Z,48.11
2023-12-27T12:13:51.687Z,48.26
2023-12-27T12:16:22.873Z,48.05
2023-12-27T12:18:55.558Z,48.31
2023-12-27T12:21:31.909Z,48.36
2023-12-27T12:24:10.237Z,48.02
2023-12-27T12:26:40.827Z,48.96
2023-12-27T12:29:11.384Z,48.62
2023-12-27T12:31:46.845Z,48.45
2023-12-27T12:34:21.300Z,48.02
2023-12-27T12:36:52.378Z,48.93
2023-12-27T12:39:23.265Z,48.94
2023-12-27T12:41:54.367Z,48.95
2023-12-27T12:44:26.162Z,48.62
2023-12-27T12:46:57.738Z,48.48
2023-12-27T12:49:33.966Z,48.40
2023-12-27T12:52:10.635Z,48.80
2023-12-27T12:54:41.227Z,48.67
2023-12-27T12:57:11.875Z,48.86
2023-12-27T12:59:44.594Z,49.13
2023-12-27T13:02:14.686Z,49.04
2023-12-27T13:04:55.358Z,48.67
2023-12-27T13:07:29.953Z,49.09
2023-12-27T13:10:02.545Z,48.88
2023-12-27T13:12:39.016Z,49.84
2023-12-27T13:15:13.215Z,49.12
2023-12-27T13:17:43.994Z,49.57
2023-12-27T13:20:16.512Z,49.54
2023-12-27T13:22:49.388Z,50.14
2023-12-27T13:25:20.594Z,49.63
2023-12-27T13:27:58.405Z,50.39
2023-12-27T13:30:36.556Z,50.61
2023-12-27T13:33:20.063Z,51.95
2023-12-27T13:35:54.737Z,52.04
2023-12-27T13:38:25.489Z,52.20
2023-12-27T13:40:56.873Z,53.27
2023-12-27T13:43:32.010Z,53.00
2023-12-27T13:46:07.861Z,52.83
2023-12-27T13:48:38.756Z,52.90
2023-12-27T13:51:11.306Z,52.02
2023-12-27T13:53:41.866Z,53.05
2023-12-27T13:56:21.428Z,53.26
2023-12-27T13:58:53.807Z,52.64
2023-12-27T14:01:25.203Z,52.96
2023-12-27T14:03:56.517Z,52.66
2023-12-27T14:06:31.035Z,52.69
2023-12-27T14:09:01.647Z,52.46
2023-12-27T14:11:34.771Z,52.92
2023-12-27T14:14:08.506Z,53.09
2023-12-27T14:16:44.191Z,53.85
2023-12-27T14:19:16.106Z,53.48
2023-12-27T14:21:49.714Z,53.49
2023-12-27T14:24:24.539Z,53.46
2023-12-27T14:26:58.111Z,53.68
2023-12-27T14:29:30.288Z,53.25
2023-12-27T14:32:01.173Z,53.96
2023-12-27T14:34:39.329Z,53.28
2023-12-27T14:37:11.717Z,53.54
2023-12-27T14:39:42.301Z,53.38
2023-12-27T14:42:12.892Z,53.13
2023-12-27T14:44:43.541Z,52.66
2023-12-27T14:47:14.768Z,52.41
2023-12-27T14:49:48.427Z,52.77
2023-12-27T14:52:21.050Z,52.27
2023-12-27T14:54:53.875Z,52.62
2023-12-27T14:57:24.855Z,52.64
2023-12-27T14:59:57.492Z,52.72
2023-12-27T15:02:28.353Z,52.54
2023-12-27T15:04:58.917Z,53.00
2023-12-27T15:07:31.098Z,52.39
2023-12-27T15:10:08.712Z,52.81
2023-12-27T15:12:40.288Z,52.36
2023-12-27T15:15:11.860Z,52.07
2023-12-27T15:17:45.614Z,52.38
2023-12-27T15:20:21.060Z,52.54
2023-12-27T15:22:55.870Z,52.01
2023-12-27T15:25:26.435Z,51.74
2023-12-27T15:27:58.266Z,52.24
2023-12-27T15:30:31.225Z,52.11
2023-12-27T15:33:01.005Z,52.05
2023-12-27T15:35:31.447Z,51.73
2023-12-27T15:38:08.702Z,52.34
2023-12-27T15:40:39.383Z,52.27
2023-12-27T15:43:09.867Z,51.99
2023-12-27T15:45:40.458Z,52.50
2023-12-27T15:48:11.156Z,52.41
2023-12-27T15:50:41.962Z,52.55
2023-12-27T15:53:14.648Z,52.64
2023-12-27T15:55:47.607Z,53.22
2023-12-27T15:58:18.187Z,52.81
2023-12-27T16:00:51.456Z,52.89
2023-12-27T16:03:29.686Z,52.78
2023-12-27T16:06:10.631Z,53.01
2023-12-27T16:08:52.280Z,53.06
2023-12-27T16:11:25.850Z,53.33
2023-12-27T16:13:57.063Z,53.60
2023-12-27T16:16:28.501Z,54.05
2023-12-27T16:19:08.204Z,54.02
2023-12-27T16:21:51.841Z,53.87
2023-12-27T16:24:36.118Z,54.06
2023-12-27T16:27:16.849Z,53.64
2023-12-27T16:29:48.238Z,53.22
2023-12-27T16:32:21.039Z,53.21
2023-12-27T16:34:54.288Z,53.50
2023-12-27T16:37:30.725Z,53.94
2023-12-27T16:40:17.045Z,54.31
2023-12-27T16:42:55.934Z,54.20
2023-12-27T16:45:30.638Z,54.36
2023-12-27T16:48:05.518Z,54.45
2023-12-27T16:50:36.070Z,54.12
2023-12-27T16:53:06.973Z,54.31
2023-12-27T16:55:39.453Z,54.66
2023-12-27T16:58:10.899Z,54.23
2023-12-27T17:00:44.580Z,54.01
2023-12-27T17:03:16.626Z,54.61
2023-12-27T17:05:49.562Z,54.74
2023-12-27T17:08:28.193Z,55.09
2023-12-27T17:11:03.404Z,55.22
2023-12-27T17:13:36.449Z,54.97
2023-12-27T17:16:08.086Z,55.41
2023-12-27T17:18:38.924Z,55.15
2023-12-27T17:21:12.658Z,55.67
2023-12-27T17:23:43.197Z,55.34
2023-12-27T17:26:15.876Z,55.20
2023-12-27T17:28:46.462Z,55.98
2023-12-27T17:31:17.113Z,55.55
2023-12-27T17:33:47.754Z,55.69
2023-12-27T17:36:19.089Z,55.95
2023-12-27T17:38:49.755Z,55.71
2023-12-27T17:41:22.129Z,55.94
2023-12-27T17:43:52.782Z,55.83
2023-12-27T17:46:23.392Z,56.09
2023-12-27T17:48:54.099Z,56.20
2023-12-27T17:51:24.940Z,56.35
2023-12-27T17:53:58.489Z,56.09
2023-12-27T17:56:32.552Z,55.96
2023-12-27T17:59:03.172Z,55.94
2023-12-27T18:01:54.587Z,55.63
2023-12-27T18:04:26.042Z,55.99
2023-12-27T18:06:57.241Z,56.21
2023-12-27T18:09:28.564Z,55.98
2023-12-27T18:12:02.648Z,56.44
2023-12-27T18:14:33.304Z,55.96
2023-12-27T18:17:12.639Z,56.73
2023-12-27T18:19:48.582Z,56.24
2023-12-27T18:22:19.335Z,56.56
2023-12-27T18:24:51.210Z,57.12
2023-12-27T18:27:27.175Z,57.10
2023-12-27T18:29:57.863Z,57.35
2023-12-27T18:32:29.211Z,57.41
2023-12-27T18:35:00.092Z,56.70
2023-12-27T18:37:33.657Z,56.69
2023-12-27T18:40:04.795Z,56.78
2023-12-27T18:42:37.205Z,56.73
2023-12-27T18:45:16.201Z,57.02
2023-12-27T18:47:49.421Z,57.20
2023-12-27T18:50:22.614Z,57.05
2023-12-27T18:52:53.356Z,56.58
2023-12-27T18:55:24.078Z,56.53
2023-12-27T18:57:56.473Z,56.29
2023-12-27T19:00:27.258Z,56.40
2023-12-27T19:03:00.577Z,56.41
2023-12-27T19:05:31.345Z,56.97
2023-12-27T19:08:01.789Z,56.98
2023-12-27T19:10:34.840Z,56.88
2023-12-27T19:13:10.814Z,57.28
2023-12-27T19:15:41.419Z,56.89
2023-12-27T19:18:12.219Z,57.36
2023-12-27T19:20:45.133Z,57.02
2023-12-27T19:23:15.710Z,57.00
2023-12-27T19:25:46.257Z,57.21
2023-12-27T19:28:18.545Z,57.05
2023-12-27T19:30:52.826Z,57.46
2023-12-27T19:33:23.763Z,57.49
2023-12-27T19:35:54.325Z,57.00
2023-12-27T19:38:25.043Z,57.84
2023-12-27T19:40:55.615Z,57.63
2023-12-27T19:43:28.028Z,57.83
2023-12-27T19:45:58.945Z,58.11
2023-12-27T19:48:30.602Z,58.01
2023-12-27T19:51:01.551Z,58.00
2023-12-27T19:53:32.066Z,58.08
2023-12-27T19:56:03.665Z,58.24
2023-12-27T19:58:35.901Z,58.21
2023-12-27T20:01:06.833Z,58.16
2023-12-27T20:03:40.735Z,58.78
2023-12-27T20:06:15.266Z,58.73
2023-12-27T20:08:45.945Z,58.20
2023-12-27T20:11:19.745Z,59.21
2023-12-27T20:13:54.626Z,59.10
2023-12-27T20:16:25.873Z,59.03
2023-12-27T20:18:56.670Z,58.93
2023-12-27T20:21:27.563Z,59.05
2023-12-27T20:23:59.062Z,59.30
2023-12-27T20:26:29.734Z,59.60
2023-12-27T20:29:04.607Z,59.47
2023-12-27T20:31:44.216Z,59.34
2023-12-27T20:34:17.453Z,59.25
2023-12-27T20:36:48.171Z,59.08
2023-12-27T20:39:18.838Z,59.00
2023-12-27T20:41:56.468Z,59.28
2023-12-27T20:44:32.521Z,59.17
2023-12-27T20:47:03.773Z,59.26
2023-12-27T20:49:35.796Z,59.15
2023-12-27T20:52:12.034Z,59.32
2023-12-27T20:54:45.596Z,59.17
2023-12-27T20:57:16.717Z,59.24
2023-12-27T20:59:49.752Z,59.26
2023-12-27T21:02:24.410Z,58.88
2023-12-27T21:04:55.949Z,58.88
2023-12-27T21:07:29.708Z,58.85
2023-12-27T21:10:00.651Z,59.23
2023-12-27T21:12:40.296Z,59.64
2023-12-27T21:15:16.302Z,59.47
2023-12-27T21:17:47.040Z,59.57
2023-12-27T21:20:17.701Z,59.16
2023-12-27T21:22:48.388Z,59.31
2023-12-27T21:25:18.814Z,58.95
2023-12-27T21:28:13.529Z,58.44
2023-12-27T21:30:46.603Z,58.88
2023-12-27T21:33:17.264Z,58.38
2023-12-27T21:35:47.994Z,58.94
2023-12-27T21:38:21.936Z,58.84
2023-12-27T21:40:52.518Z,58.92
2023-12-27T21:43:23.321Z,58.72
2023-12-27T21:45:55.536Z,58.35
2023-12-27T21:48:26.151Z,58.13
2023-12-27T21:50:56.758Z,57.69
2023-12-27T21:53:27.226Z,58.04
2023-12-27T21:55:59.836Z,58.11
2023-12-27T21:58:31.569Z,58.00
2023-12-27T22:01:06.866Z,57.62
2023-12-27T22:03:37.329Z,58.77
2023-12-27T22:06:08.961Z,58.32
2023-12-27T22:08:41.478Z,58.56
2023-12-27T22:11:12.782Z,59.58
2023-12-27T22:13:51.413Z,59.59
2023-12-27T22:16:25.236Z,59.22
2023-12-27T22:18:59.001Z,59.62
2023-12-27T22:21:32.761Z,59.44
2023-12-27T22:24:05.239Z,59.23
2023-12-27T22:26:35.923Z,59.02
2023-12-27T22:29:08.619Z,59.25
2023-12-27T22:31:43.472Z,59.20
2023-12-27T22:34:14.337Z,58.95
2023-12-27T22:36:45.608Z,58.93
2023-12-27T22:39:18.160Z,58.81
2023-12-27T22:41:48.738Z,58.81
2023-12-27T22:44:20.958Z,58.78
2023-12-27T22:46:55.697Z,58.78
2023-12-27T22:49:26.371Z,59.07
2023-12-27T22:51:56.963Z,59.58
2023-12-27T22:54:27.640Z,59.16
2023-12-27T22:56:58.223Z,59.14
2023-12-27T22:59:28.813Z,59.14
2023-12-27T23:02:01.214Z,58.86
2023-12-27T23:04:35.922Z,58.73
2023-12-27T23:07:06.738Z,58.52
2023-12-27T23:09:38.049Z,58.34
2023-12-27T23:12:14.834Z,58.09
2023-12-27T23:14:49.961Z,57.98
2023-12-27T23:17:43.510Z,58.12
2023-12-27T23:20:14.574Z,57.83
2023-12-27T23:22:45.156Z,57.82
2023-12-27T23:25:15.979Z,57.59
2023-12-27T23:27:46.736Z,57.29
2023-12-27T23:30:17.982Z,57.21
2023-12-27T23:32:51.723Z,57.24
2023-12-27T23:35:22.784Z,57.69
2023-12-27T23:37:53.361Z,56.79
2023-12-27T23:40:23.928Z,56.48
2023-12-27T23:42:54.502Z,56.71
2023-12-27T23:45:25.009Z,56.82
2023-12-27T23:47:57.997Z,56.30
2023-12-27T23:50:28.820Z,56.27
2023-12-27T23:52:59.347Z,56.42
2023-12-27T23:55:30.070Z,57.61
2023-12-27T23:58:00.954Z,57.58
